Richmond Dale, Ohio
Current Conditions -  °F | °C
As of 7:35 AM on Monday 22 Dec 2014 (Local Time) from KRZT Reporting Station
Haze Haze  
Wind Chill: 28°   Ceiling: 5000
Heat Index: 28°   Visibility: 5mi
Dew Point: 27°   Wind: 0mph
Humidity: 93%   Direction: NA
Pressure: 30.07"   Gusts: NA
Location:  39.2°N, 82.81°W
Report Text: KRZT 221235Z AUTO 00000KT 5SM BR OVC050 M02/M03 A3007 RMK AO2
Loading
Personal Weather Stations






























Interactive Weather Map New forecast layout! Learn more

10-Day Weather Forecast

Advertisements
Track Severe Weather on mobile